Aviation Digital Data Service (ADDS)

Output produced by METARs form (0230 UTC 24 August 2016)
found at http://aviationweather.gov/adds/metars/
 
KINT 232320Z 2400/2424 VRB04KT P6SM FEW060 SCT250